Terminal Aerodrome Forecast
Issued by NWS Springfield, MO

Home | Current Version | Previous Version | Text Only | Print | Product List | Glossary Off
Versions: 1 2 3 4 5 6 7 8 9 10 11 12 13 14

000
FTUS43 KSGF 231500 AAB
TAFSGF
TAF AMD
KSGF 231544Z 2316/2412 33007KT P6SM OVC009
      TEMPO 2316/2319 BKN012
     FM231900 03010KT P6SM SCT050
     FM240200 06005KT P6SM SKC=

USA.gov is the U.S. government's official web portal to all federal, state and local government web resources and services.